sensor_id;sensor_type;location;lat;lon;timestamp;P1;durP1;ratioP1;P2;durP2;ratioP2
2940;SDS011;1480;51.456;6.670;2023-02-04T00:00:07;23.07;;;5.97;;
2940;SDS011;1480;51.456;6.670;2023-02-04T00:02:37;17.63;;;6.90;;
2940;SDS011;1480;51.456;6.670;2023-02-04T00:05:05;19.60;;;6.23;;
2940;SDS011;1480;51.456;6.670;2023-02-04T00:07:32;15.27;;;7.00;;
2940;SDS011;1480;51.456;6.670;2023-02-04T00:09:59;34.23;;;6.27;;
2940;SDS011;1480;51.456;6.670;2023-02-04T00:12:27;23.40;;;6.60;;
2940;SDS011;1480;51.456;6.670;2023-02-04T00:14:55;23.17;;;5.77;;
2940;SDS011;1480;51.456;6.670;2023-02-04T00:17:22;18.63;;;6.60;;
2940;SDS011;1480;51.456;6.670;2023-02-04T00:19:49;19.67;;;4.47;;
2940;SDS011;1480;51.456;6.670;2023-02-04T00:22:16;23.33;;;5.40;;
2940;SDS011;1480;51.456;6.670;2023-02-04T00:24:44;20.43;;;6.67;;
2940;SDS011;1480;51.456;6.670;2023-02-04T00:27:14;19.50;;;6.70;;
2940;SDS011;1480;51.456;6.670;2023-02-04T00:29:41;19.87;;;8.13;;
2940;SDS011;1480;51.456;6.670;2023-02-04T00:32:09;22.23;;;6.70;;
2940;SDS011;1480;51.456;6.670;2023-02-04T00:34:36;21.23;;;7.20;;
2940;SDS011;1480;51.456;6.670;2023-02-04T00:37:03;33.00;;;6.70;;
2940;SDS011;1480;51.456;6.670;2023-02-04T00:39:30;16.87;;;5.00;;
2940;SDS011;1480;51.456;6.670;2023-02-04T00:41:57;15.53;;;5.50;;
2940;SDS011;1480;51.456;6.670;2023-02-04T00:44:24;17.53;;;4.83;;
2940;SDS011;1480;51.456;6.670;2023-02-04T00:46:51;20.33;;;5.27;;
2940;SDS011;1480;51.456;6.670;2023-02-04T00:49:19;20.87;;;5.97;;
2940;SDS011;1480;51.456;6.670;2023-02-04T00:51:46;18.57;;;6.17;;
2940;SDS011;1480;51.456;6.670;2023-02-04T00:54:13;28.23;;;7.50;;
2940;SDS011;1480;51.456;6.670;2023-02-04T00:56:41;28.53;;;5.43;;
2940;SDS011;1480;51.456;6.670;2023-02-04T00:59:08;17.80;;;6.13;;
2940;SDS011;1480;51.456;6.670;2023-02-04T01:01:35;22.27;;;5.30;;
2940;SDS011;1480;51.456;6.670;2023-02-04T01:04:03;20.27;;;5.03;;
2940;SDS011;1480;51.456;6.670;2023-02-04T01:06:31;24.20;;;5.47;;
2940;SDS011;1480;51.456;6.670;2023-02-04T01:08:58;15.50;;;5.00;;
2940;SDS011;1480;51.456;6.670;2023-02-04T01:11:26;13.07;;;4.03;;
2940;SDS011;1480;51.456;6.670;2023-02-04T01:13:53;20.00;;;5.53;;
2940;SDS011;1480;51.456;6.670;2023-02-04T01:16:20;33.83;;;5.63;;
2940;SDS011;1480;51.456;6.670;2023-02-04T01:18:47;14.53;;;5.63;;
2940;SDS011;1480;51.456;6.670;2023-02-04T01:21:16;22.80;;;5.40;;
2940;SDS011;1480;51.456;6.670;2023-02-04T01:23:44;16.23;;;5.13;;
2940;SDS011;1480;51.456;6.670;2023-02-04T01:26:11;18.07;;;5.13;;
2940;SDS011;1480;51.456;6.670;2023-02-04T01:28:38;28.40;;;5.30;;
2940;SDS011;1480;51.456;6.670;2023-02-04T01:31:05;17.33;;;4.80;;
2940;SDS011;1480;51.456;6.670;2023-02-04T01:33:32;16.90;;;6.17;;
2940;SDS011;1480;51.456;6.670;2023-02-04T01:35:59;22.50;;;6.70;;
2940;SDS011;1480;51.456;6.670;2023-02-04T01:38:26;20.43;;;6.20;;
2940;SDS011;1480;51.456;6.670;2023-02-04T01:40:54;13.30;;;5.73;;
2940;SDS011;1480;51.456;6.670;2023-02-04T01:43:22;24.90;;;5.70;;
2940;SDS011;1480;51.456;6.670;2023-02-04T01:45:49;17.90;;;4.90;;
2940;SDS011;1480;51.456;6.670;2023-02-04T01:48:17;24.73;;;6.33;;
2940;SDS011;1480;51.456;6.670;2023-02-04T01:50:45;21.10;;;4.53;;
2940;SDS011;1480;51.456;6.670;2023-02-04T01:53:13;19.13;;;4.80;;
2940;SDS011;1480;51.456;6.670;2023-02-04T01:55:43;17.87;;;5.83;;
2940;SDS011;1480;51.456;6.670;2023-02-04T01:58:12;15.63;;;4.80;;
2940;SDS011;1480;51.456;6.670;2023-02-04T02:00:40;32.03;;;6.33;;
2940;SDS011;1480;51.456;6.670;2023-02-04T02:03:07;17.00;;;6.10;;
2940;SDS011;1480;51.456;6.670;2023-02-04T02:05:37;19.73;;;6.07;;
2940;SDS011;1480;51.456;6.670;2023-02-04T02:08:07;19.63;;;5.30;;
2940;SDS011;1480;51.456;6.670;2023-02-04T02:10:37;18.67;;;5.23;;
2940;SDS011;1480;51.456;6.670;2023-02-04T02:13:06;18.10;;;5.07;;
2940;SDS011;1480;51.456;6.670;2023-02-04T02:15:38;25.23;;;6.20;;
2940;SDS011;1480;51.456;6.670;2023-02-04T02:18:05;18.27;;;6.40;;
2940;SDS011;1480;51.456;6.670;2023-02-04T02:20:33;19.87;;;5.60;;
2940;SDS011;1480;51.456;6.670;2023-02-04T02:23:02;18.80;;;5.07;;
2940;SDS011;1480;51.456;6.670;2023-02-04T02:25:33;17.13;;;5.47;;
2940;SDS011;1480;51.456;6.670;2023-02-04T02:28:02;18.60;;;5.23;;
2940;SDS011;1480;51.456;6.670;2023-02-04T02:30:32;21.70;;;5.10;;
2940;SDS011;1480;51.456;6.670;2023-02-04T02:32:59;10.30;;;3.63;;
2940;SDS011;1480;51.456;6.670;2023-02-04T02:35:26;28.63;;;5.83;;
2940;SDS011;1480;51.456;6.670;2023-02-04T02:37:55;19.73;;;4.73;;
2940;SDS011;1480;51.456;6.670;2023-02-04T02:40:22;22.30;;;4.70;;
2940;SDS011;1480;51.456;6.670;2023-02-04T02:42:51;18.33;;;4.57;;
2940;SDS011;1480;51.456;6.670;2023-02-04T02:45:20;20.10;;;5.20;;
2940;SDS011;1480;51.456;6.670;2023-02-04T02:47:49;21.33;;;4.63;;
2940;SDS011;1480;51.456;6.670;2023-02-04T02:50:19;16.90;;;5.00;;
2940;SDS011;1480;51.456;6.670;2023-02-04T02:52:48;13.77;;;4.30;;
2940;SDS011;1480;51.456;6.670;2023-02-04T02:55:16;21.97;;;5.10;;
2940;SDS011;1480;51.456;6.670;2023-02-04T02:57:45;12.07;;;4.60;;
2940;SDS011;1480;51.456;6.670;2023-02-04T03:00:17;24.00;;;5.60;;
2940;SDS011;1480;51.456;6.670;2023-02-04T03:02:49;15.00;;;4.40;;
2940;SDS011;1480;51.456;6.670;2023-02-04T03:05:20;18.67;;;4.00;;
2940;SDS011;1480;51.456;6.670;2023-02-04T03:07:47;18.03;;;4.37;;
2940;SDS011;1480;51.456;6.670;2023-02-04T03:10:14;20.47;;;4.43;;
2940;SDS011;1480;51.456;6.670;2023-02-04T03:12:42;17.47;;;5.40;;
2940;SDS011;1480;51.456;6.670;2023-02-04T03:15:09;19.73;;;4.87;;
2940;SDS011;1480;51.456;6.670;2023-02-04T03:17:37;38.37;;;7.00;;
2940;SDS011;1480;51.456;6.670;2023-02-04T03:20:05;21.07;;;4.80;;
2940;SDS011;1480;51.456;6.670;2023-02-04T03:22:33;18.17;;;4.23;;
2940;SDS011;1480;51.456;6.670;2023-02-04T03:25:00;13.37;;;4.97;;
2940;SDS011;1480;51.456;6.670;2023-02-04T03:27:28;28.43;;;5.83;;
2940;SDS011;1480;51.456;6.670;2023-02-04T03:29:55;24.40;;;4.17;;
2940;SDS011;1480;51.456;6.670;2023-02-04T03:32:22;21.50;;;4.87;;
2940;SDS011;1480;51.456;6.670;2023-02-04T03:34:50;20.20;;;4.60;;
2940;SDS011;1480;51.456;6.670;2023-02-04T03:37:17;17.90;;;5.20;;
2940;SDS011;1480;51.456;6.670;2023-02-04T03:39:44;17.70;;;4.27;;
2940;SDS011;1480;51.456;6.670;2023-02-04T03:42:11;14.77;;;3.80;;
2940;SDS011;1480;51.456;6.670;2023-02-04T03:44:38;12.30;;;4.20;;
2940;SDS011;1480;51.456;6.670;2023-02-04T03:47:05;13.80;;;3.57;;
2940;SDS011;1480;51.456;6.670;2023-02-04T03:49:32;12.50;;;3.50;;
2940;SDS011;1480;51.456;6.670;2023-02-04T03:52:01;20.53;;;4.60;;
2940;SDS011;1480;51.456;6.670;2023-02-04T03:54:28;13.50;;;3.20;;
2940;SDS011;1480;51.456;6.670;2023-02-04T03:56:55;14.20;;;3.93;;
2940;SDS011;1480;51.456;6.670;2023-02-04T03:59:22;19.90;;;5.77;;
2940;SDS011;1480;51.456;6.670;2023-02-04T04:01:49;11.73;;;3.60;;
2940;SDS011;1480;51.456;6.670;2023-02-04T04:04:16;22.17;;;5.30;;
2940;SDS011;1480;51.456;6.670;2023-02-04T04:06:43;24.13;;;5.27;;
2940;SDS011;1480;51.456;6.670;2023-02-04T04:09:11;25.63;;;3.60;;
2940;SDS011;1480;51.456;6.670;2023-02-04T04:11:38;19.30;;;4.50;;
2940;SDS011;1480;51.456;6.670;2023-02-04T04:14:05;12.50;;;4.73;;
2940;SDS011;1480;51.456;6.670;2023-02-04T04:16:32;14.20;;;4.80;;
2940;SDS011;1480;51.456;6.670;2023-02-04T04:18:59;15.57;;;4.73;;
2940;SDS011;1480;51.456;6.670;2023-02-04T04:21:26;23.63;;;5.80;;
2940;SDS011;1480;51.456;6.670;2023-02-04T04:23:53;13.33;;;4.73;;
2940;SDS011;1480;51.456;6.670;2023-02-04T04:26:22;15.20;;;4.50;;
2940;SDS011;1480;51.456;6.670;2023-02-04T04:28:49;22.60;;;4.23;;
2940;SDS011;1480;51.456;6.670;2023-02-04T04:31:16;15.00;;;3.93;;
2940;SDS011;1480;51.456;6.670;2023-02-04T04:33:43;21.20;;;5.30;;
2940;SDS011;1480;51.456;6.670;2023-02-04T04:36:09;17.10;;;5.50;;
2940;SDS011;1480;51.456;6.670;2023-02-04T04:38:36;14.63;;;4.30;;
2940;SDS011;1480;51.456;6.670;2023-02-04T04:41:03;25.20;;;5.03;;
2940;SDS011;1480;51.456;6.670;2023-02-04T04:43:32;19.60;;;4.90;;
2940;SDS011;1480;51.456;6.670;2023-02-04T04:45:58;14.87;;;4.30;;
2940;SDS011;1480;51.456;6.670;2023-02-04T04:48:25;16.30;;;5.47;;
2940;SDS011;1480;51.456;6.670;2023-02-04T04:50:52;17.67;;;4.73;;
2940;SDS011;1480;51.456;6.670;2023-02-04T04:53:19;18.17;;;5.03;;
2940;SDS011;1480;51.456;6.670;2023-02-04T04:55:46;18.53;;;3.97;;
2940;SDS011;1480;51.456;6.670;2023-02-04T04:58:13;16.60;;;5.03;;
2940;SDS011;1480;51.456;6.670;2023-02-04T05:00:41;15.90;;;4.50;;
2940;SDS011;1480;51.456;6.670;2023-02-04T05:03:08;20.07;;;5.93;;
2940;SDS011;1480;51.456;6.670;2023-02-04T05:05:35;16.03;;;5.50;;
2940;SDS011;1480;51.456;6.670;2023-02-04T05:08:05;15.87;;;5.50;;
2940;SDS011;1480;51.456;6.670;2023-02-04T05:10:35;17.57;;;5.83;;
2940;SDS011;1480;51.456;6.670;2023-02-04T05:13:02;25.57;;;5.50;;
2940;SDS011;1480;51.456;6.670;2023-02-04T05:15:28;22.30;;;5.10;;
2940;SDS011;1480;51.456;6.670;2023-02-04T05:17:57;20.70;;;3.93;;
2940;SDS011;1480;51.456;6.670;2023-02-04T05:20:24;21.90;;;7.10;;
2940;SDS011;1480;51.456;6.670;2023-02-04T05:22:51;21.80;;;5.40;;
2940;SDS011;1480;51.456;6.670;2023-02-04T05:25:20;23.37;;;5.37;;
2940;SDS011;1480;51.456;6.670;2023-02-04T05:27:47;19.30;;;4.30;;
2940;SDS011;1480;51.456;6.670;2023-02-04T05:30:14;22.03;;;4.40;;
2940;SDS011;1480;51.456;6.670;2023-02-04T05:32:41;16.13;;;5.80;;
2940;SDS011;1480;51.456;6.670;2023-02-04T05:35:09;23.40;;;4.60;;
2940;SDS011;1480;51.456;6.670;2023-02-04T05:37:37;20.37;;;4.50;;
2940;SDS011;1480;51.456;6.670;2023-02-04T05:40:04;23.40;;;5.73;;
2940;SDS011;1480;51.456;6.670;2023-02-04T05:42:31;17.57;;;5.50;;
2940;SDS011;1480;51.456;6.670;2023-02-04T05:44:58;13.20;;;4.93;;
2940;SDS011;1480;51.456;6.670;2023-02-04T05:47:25;22.27;;;5.73;;
2940;SDS011;1480;51.456;6.670;2023-02-04T05:49:52;20.63;;;5.67;;
2940;SDS011;1480;51.456;6.670;2023-02-04T05:52:20;31.40;;;5.23;;
2940;SDS011;1480;51.456;6.670;2023-02-04T05:54:47;27.83;;;6.23;;
2940;SDS011;1480;51.456;6.670;2023-02-04T05:57:14;27.73;;;5.30;;
2940;SDS011;1480;51.456;6.670;2023-02-04T05:59:41;20.47;;;5.20;;
2940;SDS011;1480;51.456;6.670;2023-02-04T06:02:08;21.33;;;4.50;;
2940;SDS011;1480;51.456;6.670;2023-02-04T06:04:35;21.20;;;5.73;;
2940;SDS011;1480;51.456;6.670;2023-02-04T06:07:02;21.03;;;6.10;;
2940;SDS011;1480;51.456;6.670;2023-02-04T06:09:30;24.23;;;6.07;;
2940;SDS011;1480;51.456;6.670;2023-02-04T06:11:57;14.83;;;4.73;;
2940;SDS011;1480;51.456;6.670;2023-02-04T06:14:24;22.70;;;5.27;;
2940;SDS011;1480;51.456;6.670;2023-02-04T06:16:51;20.90;;;6.10;;
2940;SDS011;1480;51.456;6.670;2023-02-04T06:19:18;24.90;;;6.60;;
2940;SDS011;1480;51.456;6.670;2023-02-04T06:21:44;19.53;;;4.50;;
2940;SDS011;1480;51.456;6.670;2023-02-04T06:24:11;22.83;;;5.30;;
2940;SDS011;1480;51.456;6.670;2023-02-04T06:26:40;21.43;;;5.20;;
2940;SDS011;1480;51.456;6.670;2023-02-04T06:29:07;33.40;;;7.30;;
2940;SDS011;1480;51.456;6.670;2023-02-04T06:31:34;17.97;;;4.80;;
2940;SDS011;1480;51.456;6.670;2023-02-04T06:34:02;27.43;;;6.17;;
2940;SDS011;1480;51.456;6.670;2023-02-04T06:36:30;30.67;;;6.23;;
2940;SDS011;1480;51.456;6.670;2023-02-04T06:38:56;15.00;;;5.17;;
2940;SDS011;1480;51.456;6.670;2023-02-04T06:41:23;23.83;;;6.17;;
2940;SDS011;1480;51.456;6.670;2023-02-04T06:43:52;25.80;;;5.97;;
2940;SDS011;1480;51.456;6.670;2023-02-04T06:46:19;17.93;;;6.33;;
2940;SDS011;1480;51.456;6.670;2023-02-04T06:48:45;25.67;;;5.60;;
2940;SDS011;1480;51.456;6.670;2023-02-04T06:51:14;13.37;;;4.43;;
2940;SDS011;1480;51.456;6.670;2023-02-04T06:53:41;32.47;;;7.60;;
2940;SDS011;1480;51.456;6.670;2023-02-04T06:56:10;24.10;;;5.60;;
2940;SDS011;1480;51.456;6.670;2023-02-04T06:58:39;18.30;;;4.73;;
2940;SDS011;1480;51.456;6.670;2023-02-04T07:01:07;21.47;;;5.37;;
2940;SDS011;1480;51.456;6.670;2023-02-04T07:03:34;22.70;;;6.53;;
2940;SDS011;1480;51.456;6.670;2023-02-04T07:06:01;16.33;;;5.97;;
2940;SDS011;1480;51.456;6.670;2023-02-04T07:08:28;15.43;;;5.87;;
2940;SDS011;1480;51.456;6.670;2023-02-04T07:10:55;24.37;;;7.77;;
2940;SDS011;1480;51.456;6.670;2023-02-04T07:13:21;17.87;;;5.67;;
2940;SDS011;1480;51.456;6.670;2023-02-04T07:15:48;33.77;;;7.03;;
2940;SDS011;1480;51.456;6.670;2023-02-04T07:18:18;33.93;;;7.80;;
2940;SDS011;1480;51.456;6.670;2023-02-04T07:20:47;23.53;;;6.60;;
2940;SDS011;1480;51.456;6.670;2023-02-04T07:23:14;26.40;;;6.30;;
2940;SDS011;1480;51.456;6.670;2023-02-04T07:25:41;20.30;;;6.77;;
2940;SDS011;1480;51.456;6.670;2023-02-04T07:28:09;19.63;;;5.67;;
2940;SDS011;1480;51.456;6.670;2023-02-04T07:30:36;23.73;;;6.13;;
2940;SDS011;1480;51.456;6.670;2023-02-04T07:33:03;19.20;;;5.53;;
2940;SDS011;1480;51.456;6.670;2023-02-04T07:35:31;19.27;;;5.53;;
2940;SDS011;1480;51.456;6.670;2023-02-04T07:37:58;20.53;;;6.03;;
2940;SDS011;1480;51.456;6.670;2023-02-04T07:40:25;23.63;;;5.17;;
2940;SDS011;1480;51.456;6.670;2023-02-04T07:42:52;23.47;;;6.80;;
2940;SDS011;1480;51.456;6.670;2023-02-04T07:45:21;23.73;;;5.87;;
2940;SDS011;1480;51.456;6.670;2023-02-04T07:47:48;18.13;;;5.90;;
2940;SDS011;1480;51.456;6.670;2023-02-04T07:50:19;25.73;;;5.97;;
2940;SDS011;1480;51.456;6.670;2023-02-04T07:52:47;29.67;;;6.53;;
2940;SDS011;1480;51.456;6.670;2023-02-04T07:55:14;21.50;;;5.10;;
2940;SDS011;1480;51.456;6.670;2023-02-04T07:57:42;27.60;;;7.03;;
2940;SDS011;1480;51.456;6.670;2023-02-04T08:00:10;23.30;;;5.80;;
2940;SDS011;1480;51.456;6.670;2023-02-04T08:02:38;27.00;;;6.90;;
2940;SDS011;1480;51.456;6.670;2023-02-04T08:05:06;24.07;;;5.77;;
2940;SDS011;1480;51.456;6.670;2023-02-04T08:07:34;17.13;;;5.87;;
2940;SDS011;1480;51.456;6.670;2023-02-04T08:10:02;17.63;;;6.30;;
2940;SDS011;1480;51.456;6.670;2023-02-04T08:12:32;18.03;;;5.60;;
2940;SDS011;1480;51.456;6.670;2023-02-04T08:14:59;17.87;;;5.37;;
2940;SDS011;1480;51.456;6.670;2023-02-04T08:17:26;32.63;;;10.00;;
2940;SDS011;1480;51.456;6.670;2023-02-04T08:19:53;24.60;;;6.40;;
2940;SDS011;1480;51.456;6.670;2023-02-04T08:22:20;20.50;;;6.20;;
2940;SDS011;1480;51.456;6.670;2023-02-04T08:24:50;30.60;;;7.10;;
2940;SDS011;1480;51.456;6.670;2023-02-04T08:27:19;23.13;;;6.13;;
2940;SDS011;1480;51.456;6.670;2023-02-04T08:29:46;23.57;;;5.93;;
2940;SDS011;1480;51.456;6.670;2023-02-04T08:32:16;24.60;;;6.50;;
2940;SDS011;1480;51.456;6.670;2023-02-04T08:34:43;21.03;;;5.43;;
2940;SDS011;1480;51.456;6.670;2023-02-04T08:37:12;24.73;;;6.40;;
2940;SDS011;1480;51.456;6.670;2023-02-04T08:39:39;35.07;;;6.77;;
2940;SDS011;1480;51.456;6.670;2023-02-04T08:42:10;35.73;;;8.50;;
2940;SDS011;1480;51.456;6.670;2023-02-04T08:44:38;20.90;;;7.40;;
2940;SDS011;1480;51.456;6.670;2023-02-04T08:47:05;22.70;;;8.13;;
2940;SDS011;1480;51.456;6.670;2023-02-04T08:49:32;18.83;;;8.10;;
2940;SDS011;1480;51.456;6.670;2023-02-04T08:51:59;24.10;;;9.20;;
2940;SDS011;1480;51.456;6.670;2023-02-04T08:54:27;21.77;;;7.47;;
2940;SDS011;1480;51.456;6.670;2023-02-04T08:56:54;31.23;;;9.90;;
2940;SDS011;1480;51.456;6.670;2023-02-04T08:59:21;27.20;;;9.10;;
2940;SDS011;1480;51.456;6.670;2023-02-04T09:01:54;25.40;;;9.60;;
2940;SDS011;1480;51.456;6.670;2023-02-04T09:04:21;22.53;;;9.00;;
2940;SDS011;1480;51.456;6.670;2023-02-04T09:06:50;30.70;;;9.83;;
2940;SDS011;1480;51.456;6.670;2023-02-04T09:09:17;29.00;;;10.00;;
2940;SDS011;1480;51.456;6.670;2023-02-04T09:11:44;29.23;;;8.73;;
2940;SDS011;1480;51.456;6.670;2023-02-04T09:14:11;22.10;;;8.03;;
2940;SDS011;1480;51.456;6.670;2023-02-04T09:16:38;25.00;;;9.17;;
2940;SDS011;1480;51.456;6.670;2023-02-04T09:19:06;22.20;;;8.53;;
2940;SDS011;1480;51.456;6.670;2023-02-04T09:21:36;31.67;;;6.63;;
2940;SDS011;1480;51.456;6.670;2023-02-04T09:24:03;22.20;;;6.00;;
2940;SDS011;1480;51.456;6.670;2023-02-04T09:26:33;30.10;;;6.40;;
2940;SDS011;1480;51.456;6.670;2023-02-04T09:29:00;27.63;;;7.50;;
2940;SDS011;1480;51.456;6.670;2023-02-04T09:31:27;21.73;;;6.60;;
2940;SDS011;1480;51.456;6.670;2023-02-04T09:33:54;25.63;;;6.87;;
2940;SDS011;1480;51.456;6.670;2023-02-04T09:36:22;18.63;;;6.30;;
2940;SDS011;1480;51.456;6.670;2023-02-04T09:38:52;17.30;;;4.93;;
2940;SDS011;1480;51.456;6.670;2023-02-04T09:41:19;23.63;;;6.97;;
2940;SDS011;1480;51.456;6.670;2023-02-04T09:43:46;30.40;;;7.80;;
2940;SDS011;1480;51.456;6.670;2023-02-04T09:46:16;31.93;;;7.23;;
2940;SDS011;1480;51.456;6.670;2023-02-04T09:48:45;21.17;;;6.60;;
2940;SDS011;1480;51.456;6.670;2023-02-04T09:51:16;22.17;;;5.80;;
2940;SDS011;1480;51.456;6.670;2023-02-04T09:53:46;25.63;;;6.10;;
2940;SDS011;1480;51.456;6.670;2023-02-04T09:56:13;24.80;;;5.37;;
2940;SDS011;1480;51.456;6.670;2023-02-04T09:58:41;19.83;;;7.33;;
2940;SDS011;1480;51.456;6.670;2023-02-04T10:01:11;36.37;;;6.73;;
2940;SDS011;1480;51.456;6.670;2023-02-04T10:03:44;19.73;;;7.30;;
2940;SDS011;1480;51.456;6.670;2023-02-04T10:06:14;22.43;;;5.73;;
2940;SDS011;1480;51.456;6.670;2023-02-04T10:08:45;24.73;;;7.20;;
2940;SDS011;1480;51.456;6.670;2023-02-04T10:11:24;22.27;;;7.00;;
2940;SDS011;1480;51.456;6.670;2023-02-04T10:13:53;29.30;;;7.10;;
2940;SDS011;1480;51.456;6.670;2023-02-04T10:16:23;25.10;;;6.83;;
2940;SDS011;1480;51.456;6.670;2023-02-04T10:18:54;22.87;;;6.67;;
2940;SDS011;1480;51.456;6.670;2023-02-04T10:21:23;27.47;;;6.40;;
2940;SDS011;1480;51.456;6.670;2023-02-04T10:23:55;32.67;;;7.23;;
2940;SDS011;1480;51.456;6.670;2023-02-04T10:26:27;23.83;;;6.10;;
2940;SDS011;1480;51.456;6.670;2023-02-04T10:28:58;18.77;;;7.03;;
2940;SDS011;1480;51.456;6.670;2023-02-04T10:31:30;28.73;;;7.33;;
2940;SDS011;1480;51.456;6.670;2023-02-04T10:34:04;22.00;;;8.23;;
2940;SDS011;1480;51.456;6.670;2023-02-04T10:36:39;21.17;;;8.07;;
2940;SDS011;1480;51.456;6.670;2023-02-04T10:39:11;24.40;;;9.13;;
2940;SDS011;1480;51.456;6.670;2023-02-04T10:41:44;22.60;;;9.63;;
2940;SDS011;1480;51.456;6.670;2023-02-04T10:44:13;32.93;;;8.80;;
2940;SDS011;1480;51.456;6.670;2023-02-04T10:46:41;20.33;;;7.90;;
2940;SDS011;1480;51.456;6.670;2023-02-04T10:49:18;29.43;;;9.17;;
2940;SDS011;1480;51.456;6.670;2023-02-04T10:51:47;33.17;;;8.77;;
2940;SDS011;1480;51.456;6.670;2023-02-04T10:54:19;25.20;;;8.23;;
2940;SDS011;1480;51.456;6.670;2023-02-04T10:56:55;30.00;;;9.97;;
2940;SDS011;1480;51.456;6.670;2023-02-04T10:59:23;32.00;;;8.67;;
2940;SDS011;1480;51.456;6.670;2023-02-04T11:01:53;32.20;;;8.30;;
2940;SDS011;1480;51.456;6.670;2023-02-04T11:04:21;27.73;;;9.27;;
2940;SDS011;1480;51.456;6.670;2023-02-04T11:06:48;21.53;;;7.97;;
2940;SDS011;1480;51.456;6.670;2023-02-04T11:09:17;21.57;;;7.60;;
2940;SDS011;1480;51.456;6.670;2023-02-04T11:11:45;19.17;;;8.53;;
2940;SDS011;1480;51.456;6.670;2023-02-04T11:14:22;26.70;;;10.27;;
2940;SDS011;1480;51.456;6.670;2023-02-04T11:16:52;28.37;;;10.60;;
2940;SDS011;1480;51.456;6.670;2023-02-04T11:19:32;29.97;;;11.00;;
2940;SDS011;1480;51.456;6.670;2023-02-04T11:22:06;28.10;;;10.27;;
2940;SDS011;1480;51.456;6.670;2023-02-04T11:24:47;23.20;;;9.90;;
2940;SDS011;1480;51.456;6.670;2023-02-04T11:27:19;25.20;;;9.60;;
2940;SDS011;1480;51.456;6.670;2023-02-04T11:29:49;24.53;;;9.40;;
2940;SDS011;1480;51.456;6.670;2023-02-04T11:32:27;28.33;;;10.50;;
2940;SDS011;1480;51.456;6.670;2023-02-04T11:35:05;24.60;;;8.17;;
2940;SDS011;1480;51.456;6.670;2023-02-04T11:37:35;20.60;;;8.17;;
2940;SDS011;1480;51.456;6.670;2023-02-04T11:40:21;29.57;;;10.40;;
2940;SDS011;1480;51.456;6.670;2023-02-04T11:42:55;21.50;;;9.27;;
2940;SDS011;1480;51.456;6.670;2023-02-04T11:45:24;31.37;;;10.00;;
2940;SDS011;1480;51.456;6.670;2023-02-04T11:47:55;29.33;;;9.00;;
2940;SDS011;1480;51.456;6.670;2023-02-04T11:50:25;32.27;;;9.47;;
2940;SDS011;1480;51.456;6.670;2023-02-04T11:52:54;20.50;;;6.80;;
2940;SDS011;1480;51.456;6.670;2023-02-04T11:55:23;20.50;;;6.77;;
2940;SDS011;1480;51.456;6.670;2023-02-04T11:57:51;25.83;;;7.93;;
2940;SDS011;1480;51.456;6.670;2023-02-04T12:00:20;24.63;;;7.50;;
2940;SDS011;1480;51.456;6.670;2023-02-04T12:02:50;25.83;;;7.87;;
2940;SDS011;1480;51.456;6.670;2023-02-04T12:05:21;20.80;;;6.70;;
2940;SDS011;1480;51.456;6.670;2023-02-04T12:08:08;24.33;;;6.53;;
2940;SDS011;1480;51.456;6.670;2023-02-04T12:10:37;24.47;;;6.77;;
2940;SDS011;1480;51.456;6.670;2023-02-04T12:13:11;22.13;;;6.73;;
2940;SDS011;1480;51.456;6.670;2023-02-04T12:15:38;19.90;;;5.67;;
2940;SDS011;1480;51.456;6.670;2023-02-04T12:18:06;34.20;;;7.33;;
2940;SDS011;1480;51.456;6.670;2023-02-04T12:20:34;24.60;;;6.80;;
2940;SDS011;1480;51.456;6.670;2023-02-04T12:23:01;15.30;;;5.40;;
2940;SDS011;1480;51.456;6.670;2023-02-04T12:25:28;17.73;;;6.47;;
2940;SDS011;1480;51.456;6.670;2023-02-04T12:27:57;23.57;;;6.67;;
2940;SDS011;1480;51.456;6.670;2023-02-04T12:30:24;37.87;;;8.27;;
2940;SDS011;1480;51.456;6.670;2023-02-04T12:32:52;16.97;;;5.80;;
2940;SDS011;1480;51.456;6.670;2023-02-04T12:35:19;27.57;;;6.43;;
2940;SDS011;1480;51.456;6.670;2023-02-04T12:37:46;16.60;;;5.10;;
2940;SDS011;1480;51.456;6.670;2023-02-04T12:40:13;21.43;;;6.40;;
2940;SDS011;1480;51.456;6.670;2023-02-04T12:42:41;18.83;;;5.50;;
2940;SDS011;1480;51.456;6.670;2023-02-04T12:45:10;25.97;;;7.37;;
2940;SDS011;1480;51.456;6.670;2023-02-04T12:47:44;13.27;;;5.27;;
2940;SDS011;1480;51.456;6.670;2023-02-04T12:50:12;18.67;;;5.70;;
2940;SDS011;1480;51.456;6.670;2023-02-04T12:52:46;22.80;;;5.30;;
2940;SDS011;1480;51.456;6.670;2023-02-04T12:55:14;29.20;;;6.30;;
2940;SDS011;1480;51.456;6.670;2023-02-04T12:57:41;20.00;;;5.50;;
2940;SDS011;1480;51.456;6.670;2023-02-04T13:00:10;18.43;;;4.73;;
2940;SDS011;1480;51.456;6.670;2023-02-04T13:02:39;19.03;;;5.43;;
2940;SDS011;1480;51.456;6.670;2023-02-04T13:05:06;13.50;;;3.93;;
2940;SDS011;1480;51.456;6.670;2023-02-04T13:07:34;20.07;;;4.87;;
2940;SDS011;1480;51.456;6.670;2023-02-04T13:10:01;21.30;;;5.80;;
2940;SDS011;1480;51.456;6.670;2023-02-04T13:12:29;15.83;;;4.33;;
2940;SDS011;1480;51.456;6.670;2023-02-04T13:14:56;20.97;;;5.93;;
2940;SDS011;1480;51.456;6.670;2023-02-04T13:17:24;17.97;;;5.03;;
2940;SDS011;1480;51.456;6.670;2023-02-04T13:19:51;16.90;;;5.07;;
2940;SDS011;1480;51.456;6.670;2023-02-04T13:22:18;24.60;;;5.20;;
2940;SDS011;1480;51.456;6.670;2023-02-04T13:24:45;24.17;;;6.40;;
2940;SDS011;1480;51.456;6.670;2023-02-04T13:27:12;16.43;;;5.67;;
2940;SDS011;1480;51.456;6.670;2023-02-04T13:29:39;16.70;;;5.40;;
2940;SDS011;1480;51.456;6.670;2023-02-04T13:32:06;24.20;;;5.40;;
2940;SDS011;1480;51.456;6.670;2023-02-04T13:34:35;19.30;;;6.47;;
2940;SDS011;1480;51.456;6.670;2023-02-04T13:37:02;17.40;;;4.60;;
2940;SDS011;1480;51.456;6.670;2023-02-04T13:39:29;19.27;;;4.20;;
2940;SDS011;1480;51.456;6.670;2023-02-04T13:41:56;16.87;;;4.40;;
2940;SDS011;1480;51.456;6.670;2023-02-04T13:44:22;20.03;;;5.30;;
2940;SDS011;1480;51.456;6.670;2023-02-04T13:46:49;23.47;;;5.40;;
2940;SDS011;1480;51.456;6.670;2023-02-04T13:49:17;17.80;;;4.70;;
2940;SDS011;1480;51.456;6.670;2023-02-04T13:51:47;19.53;;;5.03;;
2940;SDS011;1480;51.456;6.670;2023-02-04T13:54:14;24.87;;;7.53;;
2940;SDS011;1480;51.456;6.670;2023-02-04T13:56:40;24.10;;;8.00;;
2940;SDS011;1480;51.456;6.670;2023-02-04T13:59:07;26.90;;;6.80;;
2940;SDS011;1480;51.456;6.670;2023-02-04T14:01:34;20.27;;;5.80;;
2940;SDS011;1480;51.456;6.670;2023-02-04T14:04:01;19.40;;;5.50;;
2940;SDS011;1480;51.456;6.670;2023-02-04T14:06:28;19.13;;;5.00;;
2940;SDS011;1480;51.456;6.670;2023-02-04T14:08:59;19.27;;;4.97;;
2940;SDS011;1480;51.456;6.670;2023-02-04T14:11:26;18.23;;;5.10;;
2940;SDS011;1480;51.456;6.670;2023-02-04T14:13:53;28.77;;;5.77;;
2940;SDS011;1480;51.456;6.670;2023-02-04T14:16:20;19.10;;;5.57;;
2940;SDS011;1480;51.456;6.670;2023-02-04T14:18:47;14.00;;;4.40;;
2940;SDS011;1480;51.456;6.670;2023-02-04T14:21:14;17.93;;;4.73;;
2940;SDS011;1480;51.456;6.670;2023-02-04T14:23:41;19.67;;;4.40;;
2940;SDS011;1480;51.456;6.670;2023-02-04T14:26:09;15.90;;;3.53;;
2940;SDS011;1480;51.456;6.670;2023-02-04T14:28:36;19.70;;;5.20;;
2940;SDS011;1480;51.456;6.670;2023-02-04T14:31:04;15.20;;;4.30;;
2940;SDS011;1480;51.456;6.670;2023-02-04T14:33:31;21.13;;;4.93;;
2940;SDS011;1480;51.456;6.670;2023-02-04T14:35:58;17.80;;;5.00;;
2940;SDS011;1480;51.456;6.670;2023-02-04T14:38:25;20.70;;;4.83;;
2940;SDS011;1480;51.456;6.670;2023-02-04T14:40:55;15.87;;;4.73;;
2940;SDS011;1480;51.456;6.670;2023-02-04T14:43:24;9.20;;;3.70;;
2940;SDS011;1480;51.456;6.670;2023-02-04T14:45:52;24.53;;;5.20;;
2940;SDS011;1480;51.456;6.670;2023-02-04T14:48:19;12.23;;;3.70;;
2940;SDS011;1480;51.456;6.670;2023-02-04T14:50:46;20.40;;;4.90;;
2940;SDS011;1480;51.456;6.670;2023-02-04T14:53:13;11.60;;;4.03;;
2940;SDS011;1480;51.456;6.670;2023-02-04T14:55:40;14.67;;;4.37;;
2940;SDS011;1480;51.456;6.670;2023-02-04T14:58:07;17.60;;;5.53;;
2940;SDS011;1480;51.456;6.670;2023-02-04T15:00:35;15.07;;;4.40;;
2940;SDS011;1480;51.456;6.670;2023-02-04T15:03:02;22.67;;;5.87;;
2940;SDS011;1480;51.456;6.670;2023-02-04T15:05:30;19.07;;;4.90;;